createdAt,value
2023-04-18T00:01:44.504Z,8.97
2023-04-18T00:04:12.118Z,8.88
2023-04-18T00:06:39.227Z,9.52
2023-04-18T00:09:06.215Z,10.38
2023-04-18T00:11:33.026Z,8.70
2023-04-18T00:13:59.764Z,8.57
2023-04-18T00:16:28.304Z,8.95
2023-04-18T00:18:55.423Z,8.73
2023-04-18T00:21:22.646Z,7.78
2023-04-18T00:23:49.403Z,9.05
2023-04-18T00:26:16.111Z,10.07
2023-04-18T00:28:42.771Z,23.10
2023-04-18T00:31:09.599Z,9.35
2023-04-18T00:33:36.321Z,9.32
2023-04-18T00:36:03.413Z,8.93
2023-04-18T00:38:30.135Z,9.57
2023-04-18T00:40:56.849Z,10.60
2023-04-18T00:43:24.642Z,9.90
2023-04-18T00:45:51.350Z,9.15
2023-04-18T00:48:18.361Z,10.05
2023-04-18T00:50:45.361Z,10.70
2023-04-18T00:53:12.962Z,11.40
2023-04-18T00:55:40.636Z,11.35
2023-04-18T00:58:07.381Z,10.57
2023-04-18T01:00:34.214Z,10.75
2023-04-18T01:03:00.949Z,11.03
2023-04-18T01:05:27.802Z,12.13
2023-04-18T01:08:00.308Z,11.05
2023-04-18T01:10:28.534Z,12.07
2023-04-18T01:13:12.125Z,12.85
2023-04-18T01:15:43.287Z,12.90
2023-04-18T01:18:10.911Z,12.38
2023-04-18T01:20:41.574Z,12.35
2023-04-18T01:23:10.358Z,14.43
2023-04-18T01:25:37.386Z,13.63
2023-04-18T01:28:04.607Z,14.07
2023-04-18T01:30:31.300Z,14.40
2023-04-18T01:32:58.002Z,14.68
2023-04-18T01:35:24.798Z,13.25
2023-04-18T01:37:51.515Z,11.98
2023-04-18T01:40:18.274Z,14.20
2023-04-18T01:42:44.980Z,14.50
2023-04-18T01:45:13.109Z,13.90
2023-04-18T01:47:39.887Z,13.10
2023-04-18T01:50:07.160Z,14.38
2023-04-18T01:52:33.971Z,14.73
2023-04-18T01:55:02.153Z,13.50
2023-04-18T01:57:28.983Z,15.35
2023-04-18T01:59:55.680Z,13.85
2023-04-18T02:02:22.425Z,14.95
2023-04-18T02:04:49.170Z,12.90
2023-04-18T02:07:15.914Z,13.90
2023-04-18T02:09:42.534Z,14.55
2023-04-18T02:12:09.494Z,15.20
2023-04-18T02:14:36.499Z,15.85
2023-04-18T02:17:03.183Z,14.97
2023-04-18T02:19:29.986Z,14.32
2023-04-18T02:21:56.679Z,15.15
2023-04-18T02:24:23.340Z,14.65
2023-04-18T02:26:50.586Z,15.90
2023-04-18T02:29:17.300Z,16.47
2023-04-18T02:31:44.086Z,17.52
2023-04-18T02:34:10.828Z,15.98
2023-04-18T02:36:37.502Z,14.82
2023-04-18T02:39:04.082Z,14.63
2023-04-18T02:41:31.205Z,14.97
2023-04-18T02:43:58.147Z,14.05
2023-04-18T02:46:25.266Z,12.85
2023-04-18T02:48:51.996Z,13.02
2023-04-18T02:51:20.013Z,12.35
2023-04-18T02:53:46.778Z,13.03
2023-04-18T02:56:17.074Z,12.95
2023-04-18T02:58:43.759Z,13.68
2023-04-18T03:01:10.430Z,14.02
2023-04-18T03:03:37.052Z,14.02
2023-04-18T03:06:03.809Z,13.83
2023-04-18T03:08:30.624Z,14.93
2023-04-18T03:10:57.312Z,13.60
2023-04-18T03:13:25.132Z,14.38
2023-04-18T03:15:51.869Z,15.05
2023-04-18T03:18:18.512Z,13.93
2023-04-18T03:20:45.225Z,13.98
2023-04-18T03:23:11.892Z,14.00
2023-04-18T03:25:38.568Z,14.82
2023-04-18T03:28:05.400Z,13.73
2023-04-18T03:30:32.486Z,15.07
2023-04-18T03:32:59.527Z,14.45
2023-04-18T03:35:26.283Z,16.58
2023-04-18T03:37:52.930Z,15.88
2023-04-18T03:40:19.522Z,15.02
2023-04-18T03:42:46.186Z,18.77
2023-04-18T03:45:12.836Z,15.30
2023-04-18T03:47:39.671Z,15.27
2023-04-18T03:50:06.798Z,15.80
2023-04-18T03:52:33.479Z,16.75
2023-04-18T03:55:00.224Z,16.83
2023-04-18T03:57:26.887Z,15.80
2023-04-18T03:59:54.137Z,16.15
2023-04-18T04:02:21.008Z,16.85
2023-04-18T04:04:47.839Z,16.38
2023-04-18T04:07:14.731Z,16.23
2023-04-18T04:09:41.378Z,18.35
2023-04-18T04:12:08.086Z,20.17
2023-04-18T04:14:34.760Z,18.05
2023-04-18T04:17:01.484Z,18.00
2023-04-18T04:19:28.229Z,17.87
2023-04-18T04:21:54.948Z,19.48
2023-04-18T04:24:22.696Z,19.25
2023-04-18T04:26:50.713Z,20.15
2023-04-18T04:29:18.957Z,20.45
2023-04-18T04:31:45.816Z,20.73
2023-04-18T04:34:12.809Z,20.40
2023-04-18T04:36:41.159Z,20.10
2023-04-18T04:39:08.673Z,20.80
2023-04-18T04:41:37.582Z,19.20
2023-04-18T04:44:04.808Z,23.10
2023-04-18T04:46:31.783Z,19.08
2023-04-18T04:48:58.527Z,19.42
2023-04-18T04:51:25.762Z,20.35
2023-04-18T04:53:52.408Z,19.95
2023-04-18T04:56:19.225Z,20.57
2023-04-18T04:58:45.889Z,18.90
2023-04-18T05:01:12.927Z,20.17
2023-04-18T05:03:39.723Z,18.50
2023-04-18T05:06:06.586Z,18.38
2023-04-18T05:08:33.261Z,20.57
2023-04-18T05:11:02.093Z,20.45
2023-04-18T05:13:28.699Z,19.27
2023-04-18T05:15:55.620Z,18.58
2023-04-18T05:18:22.332Z,17.48
2023-04-18T05:20:49.344Z,17.43
2023-04-18T05:23:16.231Z,16.60
2023-04-18T05:25:42.939Z,17.83
2023-04-18T05:28:09.647Z,18.50
2023-04-18T05:30:36.349Z,19.00
2023-04-18T05:33:03.516Z,16.30
2023-04-18T05:35:30.890Z,17.70
2023-04-18T05:37:58.350Z,15.40
2023-04-18T05:40:27.198Z,17.33
2023-04-18T05:42:53.835Z,18.00
2023-04-18T05:45:20.495Z,16.37
2023-04-18T05:47:47.164Z,18.10
2023-04-18T05:50:14.080Z,18.17
2023-04-18T05:52:41.109Z,16.15
2023-04-18T05:55:08.035Z,15.77
2023-04-18T05:57:34.784Z,23.13
2023-04-18T06:00:01.643Z,16.13
2023-04-18T06:02:28.662Z,17.42
2023-04-18T06:04:56.707Z,17.85
2023-04-18T06:07:25.278Z,19.52
2023-04-18T06:09:53.372Z,17.57
2023-04-18T06:12:20.545Z,17.95
2023-04-18T06:14:47.167Z,16.40
2023-04-18T06:17:14.011Z,17.45
2023-04-18T06:19:40.727Z,16.88
2023-04-18T06:22:07.394Z,15.27
2023-04-18T06:24:34.085Z,16.60
2023-04-18T06:27:01.900Z,17.55
2023-04-18T06:29:30.477Z,16.85
2023-04-18T06:31:57.888Z,16.60
2023-04-18T06:34:24.767Z,15.63
2023-04-18T06:36:52.237Z,14.88
2023-04-18T06:39:19.007Z,15.15
2023-04-18T06:41:45.766Z,16.02
2023-04-18T06:44:12.413Z,15.98
2023-04-18T06:46:39.018Z,16.07
2023-04-18T06:49:05.797Z,15.50
2023-04-18T06:51:32.573Z,16.10
2023-04-18T06:53:59.282Z,17.27
2023-04-18T06:56:26.217Z,15.20
2023-04-18T06:58:52.887Z,15.93
2023-04-18T07:01:19.836Z,14.38
2023-04-18T07:03:46.769Z,16.88
2023-04-18T07:06:13.621Z,16.05
2023-04-18T07:08:40.396Z,14.80
2023-04-18T07:11:07.041Z,15.73
2023-04-18T07:13:33.721Z,15.73
2023-04-18T07:16:01.334Z,14.32
2023-04-18T07:18:37.560Z,17.52
2023-04-18T07:21:08.939Z,17.73
2023-04-18T07:23:36.237Z,20.03
2023-04-18T07:26:03.376Z,18.10
2023-04-18T07:28:31.831Z,18.58
2023-04-18T07:30:59.191Z,18.50
2023-04-18T07:33:25.906Z,18.92
2023-04-18T07:35:53.242Z,19.90
2023-04-18T07:38:20.567Z,22.38
2023-04-18T07:40:47.360Z,20.75
2023-04-18T07:43:14.066Z,22.13
2023-04-18T07:45:43.114Z,23.38
2023-04-18T07:48:09.883Z,21.77
2023-04-18T07:50:36.540Z,23.60
2023-04-18T07:53:03.471Z,23.38
2023-04-18T07:55:30.719Z,23.70
2023-04-18T07:57:57.479Z,22.50
2023-04-18T08:00:24.587Z,23.10
2023-04-18T08:02:51.579Z,23.95
2023-04-18T08:05:21.458Z,22.92
2023-04-18T08:07:48.155Z,21.48
2023-04-18T08:10:14.877Z,32.78
2023-04-18T08:12:41.967Z,25.03
2023-04-18T08:15:09.068Z,23.75
2023-04-18T08:17:36.410Z,25.15
2023-04-18T08:20:07.482Z,24.98
2023-04-18T08:22:34.252Z,25.15
2023-04-18T08:25:05.456Z,23.73
2023-04-18T08:27:33.164Z,24.90
2023-04-18T08:30:00.496Z,24.58
2023-04-18T08:32:27.273Z,26.10
2023-04-18T08:34:53.992Z,28.10
2023-04-18T08:37:20.753Z,26.07
2023-04-18T08:39:47.422Z,26.75
2023-04-18T08:42:19.218Z,31.38
2023-04-18T08:44:47.284Z,28.75
2023-04-18T08:47:14.725Z,30.88
2023-04-18T08:49:43.794Z,26.23
2023-04-18T08:52:13.495Z,27.98
2023-04-18T08:54:45.211Z,29.08
2023-04-18T08:57:16.648Z,28.08
2023-04-18T08:59:46.794Z,27.15
2023-04-18T09:02:15.612Z,30.60
2023-04-18T09:04:45.303Z,27.75
2023-04-18T09:07:14.520Z,29.38
2023-04-18T09:09:53.381Z,29.80
2023-04-18T09:12:25.428Z,28.70
2023-04-18T09:15:14.183Z,29.47
2023-04-18T09:17:43.489Z,29.67
2023-04-18T09:20:12.153Z,25.90
2023-04-18T09:22:52.158Z,29.83
2023-04-18T09:25:39.860Z,27.45
2023-04-18T09:28:28.745Z,28.33
2023-04-18T09:31:09.149Z,30.95
2023-04-18T09:33:37.081Z,30.17
2023-04-18T09:36:31.338Z,32.28
2023-04-18T09:38:58.221Z,28.50
2023-04-18T09:41:24.885Z,32.47
2023-04-18T09:44:12.310Z,34.03
2023-04-18T09:46:40.896Z,31.92
2023-04-18T09:49:09.684Z,29.58
2023-04-18T09:51:40.313Z,30.42
2023-04-18T09:54:09.266Z,30.13
2023-04-18T09:56:38.010Z,28.90
2023-04-18T09:59:09.844Z,31.90
2023-04-18T10:01:37.116Z,33.10
2023-04-18T10:04:06.555Z,33.13
2023-04-18T10:06:41.903Z,33.47
2023-04-18T10:09:09.706Z,30.40
2023-04-18T10:11:36.848Z,31.67
2023-04-18T10:14:07.836Z,32.20
2023-04-18T10:16:36.384Z,32.53
2023-04-18T10:19:32.589Z,30.10
2023-04-18T10:22:01.466Z,30.77
2023-04-18T10:24:49.678Z,31.77
2023-04-18T10:27:17.673Z,30.67
2023-04-18T10:29:54.566Z,30.38
2023-04-18T10:32:24.104Z,32.37
2023-04-18T10:34:53.468Z,31.15
2023-04-18T10:37:20.227Z,32.17
2023-04-18T10:39:48.352Z,34.35
2023-04-18T10:42:14.979Z,31.75
2023-04-18T10:44:41.672Z,28.07
2023-04-18T10:47:08.420Z,27.98
2023-04-18T10:49:38.048Z,28.13
2023-04-18T10:52:08.567Z,26.80
2023-04-18T10:54:38.834Z,28.33
2023-04-18T10:57:07.629Z,27.87
2023-04-18T10:59:38.624Z,27.52
2023-04-18T11:02:26.281Z,27.33
2023-04-18T11:04:54.655Z,26.60
2023-04-18T11:07:34.673Z,26.95
2023-04-18T11:10:02.052Z,25.80
2023-04-18T11:12:32.364Z,25.90
2023-04-18T11:15:03.226Z,26.58
2023-04-18T11:17:32.823Z,24.67
2023-04-18T11:20:11.481Z,24.88
2023-04-18T11:22:49.192Z,22.67
2023-04-18T11:25:16.969Z,25.33
2023-04-18T11:27:47.957Z,23.40
2023-04-18T11:30:15.619Z,22.25
2023-04-18T11:32:42.377Z,24.23
2023-04-18T11:35:11.284Z,26.23
2023-04-18T11:37:39.245Z,22.80
2023-04-18T11:40:08.475Z,20.00
2023-04-18T11:42:37.309Z,21.67
2023-04-18T11:45:04.497Z,19.63
2023-04-18T11:47:34.270Z,21.27
2023-04-18T11:50:03.276Z,18.27
2023-04-18T11:52:31.280Z,18.30
2023-04-18T11:55:14.593Z,21.40
2023-04-18T11:57:41.924Z,19.30
2023-04-18T12:00:10.720Z,17.80
2023-04-18T12:02:46.051Z,19.08
2023-04-18T12:05:25.208Z,18.45
2023-04-18T12:07:52.114Z,16.25
2023-04-18T12:10:29.741Z,26.67
2023-04-18T12:12:59.793Z,18.80
2023-04-18T12:15:28.626Z,19.92
2023-04-18T12:18:04.916Z,18.85
2023-04-18T12:20:46.042Z,16.88
2023-04-18T12:23:48.172Z,19.15
2023-04-18T12:26:20.231Z,16.20
2023-04-18T12:28:50.142Z,16.48
2023-04-18T12:31:17.238Z,16.98
2023-04-18T12:33:43.918Z,17.48
2023-04-18T12:36:11.130Z,17.00
2023-04-18T12:38:37.827Z,16.20
2023-04-18T12:41:05.408Z,16.20
2023-04-18T12:43:32.551Z,15.57
2023-04-18T12:45:59.838Z,15.23
2023-04-18T12:48:26.559Z,14.82
2023-04-18T12:50:53.246Z,15.57
2023-04-18T12:53:20.294Z,13.77
2023-04-18T12:55:47.043Z,15.73
2023-04-18T12:58:18.466Z,14.50
2023-04-18T13:00:45.176Z,12.63
2023-04-18T13:03:13.371Z,14.83
2023-04-18T13:05:40.504Z,14.10
2023-04-18T13:08:16.352Z,14.38
2023-04-18T13:10:45.604Z,13.35
2023-04-18T13:13:12.329Z,13.48
2023-04-18T13:15:39.069Z,13.17
2023-04-18T13:18:06.740Z,13.50
2023-04-18T13:20:34.350Z,15.10
2023-04-18T13:23:02.693Z,13.43
2023-04-18T13:25:29.352Z,13.32
2023-04-18T13:27:57.474Z,16.03
2023-04-18T13:30:24.217Z,13.15
2023-04-18T13:32:50.946Z,14.00
2023-04-18T13:35:17.658Z,12.73
2023-04-18T13:37:44.454Z,12.25
2023-04-18T13:40:11.701Z,13.73
2023-04-18T13:42:38.719Z,13.63
2023-04-18T13:45:05.962Z,13.77
2023-04-18T13:47:34.208Z,12.20
2023-04-18T13:50:01.053Z,14.80
2023-04-18T13:52:27.859Z,13.10
2023-04-18T13:54:54.528Z,14.82
2023-04-18T13:57:21.953Z,15.55
2023-04-18T13:59:48.682Z,13.27
2023-04-18T14:02:15.743Z,14.13
2023-04-18T14:04:42.616Z,11.60
2023-04-18T14:07:09.441Z,15.57
2023-04-18T14:09:36.252Z,12.45
2023-04-18T14:12:03.119Z,12.27
2023-04-18T14:14:29.964Z,10.60
2023-04-18T14:16:56.836Z,11.57
2023-04-18T14:19:23.577Z,12.27
2023-04-18T14:21:50.271Z,11.38
2023-04-18T14:24:16.936Z,10.60
2023-04-18T14:26:43.926Z,10.77
2023-04-18T14:29:11.123Z,11.30
2023-04-18T14:31:38.037Z,12.30
2023-04-18T14:34:05.550Z,14.80
2023-04-18T14:36:32.737Z,11.68
2023-04-18T14:38:59.398Z,11.57
2023-04-18T14:41:26.168Z,10.60
2023-04-18T14:43:53.041Z,10.88
2023-04-18T14:46:20.957Z,10.98
2023-04-18T14:48:47.683Z,12.88
2023-04-18T14:51:17.260Z,10.85
2023-04-18T14:53:44.656Z,14.00
2023-04-18T14:56:11.704Z,12.13
2023-04-18T14:58:38.498Z,11.52
2023-04-18T15:01:05.938Z,9.73
2023-04-18T15:03:33.177Z,10.23
2023-04-18T15:06:00.265Z,10.27
2023-04-18T15:08:27.006Z,12.55
2023-04-18T15:10:53.686Z,9.95
2023-04-18T15:13:20.447Z,14.38
2023-04-18T15:15:53.936Z,10.70
2023-04-18T15:18:20.920Z,12.10
2023-04-18T15:20:47.559Z,9.98
2023-04-18T15:23:14.810Z,10.65
2023-04-18T15:25:42.302Z,11.48
2023-04-18T15:28:09.172Z,10.43
2023-04-18T15:30:36.035Z,12.10
2023-04-18T15:33:02.802Z,11.43
2023-04-18T15:35:29.560Z,11.27
2023-04-18T15:37:57.361Z,10.27
2023-04-18T15:40:24.277Z,12.30
2023-04-18T15:42:53.562Z,10.93
2023-04-18T15:45:21.381Z,10.00
2023-04-18T15:47:48.311Z,10.95
2023-04-18T15:50:16.342Z,12.35
2023-04-18T15:52:44.035Z,10.77
2023-04-18T15:55:13.045Z,9.87
2023-04-18T15:57:40.705Z,10.05
2023-04-18T16:00:16.328Z,10.82
2023-04-18T16:02:46.822Z,10.57
2023-04-18T16:05:14.216Z,9.38
2023-04-18T16:07:42.268Z,10.73
2023-04-18T16:10:10.553Z,10.38
2023-04-18T16:12:38.658Z,10.85
2023-04-18T16:15:06.999Z,10.45
2023-04-18T16:17:34.113Z,9.52
2023-04-18T16:20:00.807Z,10.23
2023-04-18T16:22:27.450Z,9.85
2023-04-18T16:24:54.164Z,10.68
2023-04-18T16:27:21.311Z,10.48
2023-04-18T16:29:48.091Z,11.30
2023-04-18T16:32:14.774Z,12.27
2023-04-18T16:34:41.480Z,11.77
2023-04-18T16:37:08.244Z,11.43
2023-04-18T16:39:34.849Z,9.73
2023-04-18T16:42:02.898Z,11.32
2023-04-18T16:44:30.756Z,11.67
2023-04-18T16:46:57.509Z,12.77
2023-04-18T16:49:24.368Z,14.27
2023-04-18T16:51:51.985Z,13.60
2023-04-18T16:54:18.699Z,17.27
2023-04-18T16:56:45.503Z,12.50
2023-04-18T16:59:12.306Z,11.85
2023-04-18T17:01:39.148Z,10.35
2023-04-18T17:04:06.002Z,11.25
2023-04-18T17:06:32.805Z,10.82
2023-04-18T17:08:59.525Z,11.53
2023-04-18T17:11:26.541Z,10.45
2023-04-18T17:13:53.432Z,10.18
2023-04-18T17:16:20.341Z,11.75
2023-04-18T17:18:47.080Z,10.85
2023-04-18T17:21:13.819Z,10.30
2023-04-18T17:23:42.280Z,10.95
2023-04-18T17:26:09.980Z,10.23
2023-04-18T17:28:36.842Z,13.68
2023-04-18T17:31:03.768Z,12.27
2023-04-18T17:33:31.296Z,11.07
2023-04-18T17:35:58.324Z,14.20
2023-04-18T17:38:25.147Z,11.43
2023-04-18T17:41:02.043Z,10.95
2023-04-18T17:43:28.857Z,10.27
2023-04-18T17:45:56.845Z,9.40
2023-04-18T17:48:23.665Z,9.90
2023-04-18T17:50:50.386Z,12.00
2023-04-18T17:53:18.078Z,10.57
2023-04-18T17:55:46.784Z,13.90
2023-04-18T17:58:13.582Z,13.53
2023-04-18T18:00:40.404Z,14.88
2023-04-18T18:03:09.293Z,13.98
2023-04-18T18:05:36.062Z,13.00
2023-04-18T18:08:02.696Z,10.43
2023-04-18T18:10:29.929Z,13.43
2023-04-18T18:12:56.720Z,10.02
2023-04-18T18:15:24.376Z,11.80
2023-04-18T18:17:51.872Z,14.98
2023-04-18T18:20:19.093Z,13.20
2023-04-18T18:22:46.253Z,11.30
2023-04-18T18:25:13.317Z,11.95
2023-04-18T18:27:40.773Z,10.63
2023-04-18T18:30:08.237Z,11.85
2023-04-18T18:32:35.117Z,10.95
2023-04-18T18:35:02.667Z,12.10
2023-04-18T18:37:29.389Z,13.30
2023-04-18T18:39:57.081Z,11.45
2023-04-18T18:42:23.809Z,12.57
2023-04-18T18:44:50.531Z,12.38
2023-04-18T18:47:20.011Z,11.60
2023-04-18T18:49:48.868Z,12.48
2023-04-18T18:52:16.020Z,12.38
2023-04-18T18:54:42.824Z,14.23
2023-04-18T18:57:09.533Z,14.23
2023-04-18T18:59:36.229Z,15.27
2023-04-18T19:02:04.474Z,20.42
2023-04-18T19:04:31.516Z,17.48
2023-04-18T19:06:58.276Z,19.65
2023-04-18T19:09:25.031Z,14.48
2023-04-18T19:11:51.743Z,20.70
2023-04-18T19:14:18.384Z,14.85
2023-04-18T19:16:45.155Z,24.48
2023-04-18T19:19:12.054Z,22.50
2023-04-18T19:21:42.743Z,14.05
2023-04-18T19:24:11.201Z,15.60
2023-04-18T19:26:37.879Z,17.17
2023-04-18T19:29:06.579Z,13.30
2023-04-18T19:31:34.354Z,13.20
2023-04-18T19:34:01.701Z,15.25
2023-04-18T19:36:28.384Z,13.80
2023-04-18T19:38:55.053Z,11.95
2023-04-18T19:41:21.824Z,14.95
2023-04-18T19:43:48.577Z,13.43
2023-04-18T19:46:15.450Z,12.55
2023-04-18T19:48:42.168Z,15.33
2023-04-18T19:51:08.906Z,14.75
2023-04-18T19:53:35.656Z,14.38
2023-04-18T19:56:02.340Z,13.68
2023-04-18T19:58:48.857Z,12.68
2023-04-18T20:01:17.695Z,13.03
2023-04-18T20:03:44.693Z,13.75
2023-04-18T20:06:11.620Z,16.00
2023-04-18T20:08:43.128Z,14.88
2023-04-18T20:11:11.135Z,13.63
2023-04-18T20:13:38.443Z,13.80
2023-04-18T20:16:06.386Z,14.35
2023-04-18T20:18:36.244Z,14.30
2023-04-18T20:21:04.082Z,13.63
2023-04-18T20:23:31.065Z,14.55
2023-04-18T20:25:57.753Z,14.40
2023-04-18T20:28:24.535Z,13.77
2023-04-18T20:30:51.234Z,12.30
2023-04-18T20:33:18.230Z,14.10
2023-04-18T20:35:44.910Z,16.10
2023-04-18T20:38:12.283Z,14.37
2023-04-18T20:40:39.060Z,15.02
2023-04-18T20:43:08.005Z,14.25
2023-04-18T20:45:37.574Z,15.50
2023-04-18T20:48:04.736Z,14.48
2023-04-18T20:50:31.482Z,14.17
2023-04-18T20:53:00.387Z,23.63
2023-04-18T20:55:27.420Z,15.15
2023-04-18T20:57:54.188Z,15.25
2023-04-18T21:00:20.970Z,14.32
2023-04-18T21:02:47.796Z,14.50
2023-04-18T21:05:14.590Z,19.58
2023-04-18T21:07:41.294Z,17.88
2023-04-18T21:10:08.296Z,15.43
2023-04-18T21:12:34.934Z,18.77
2023-04-18T21:15:01.823Z,15.30
2023-04-18T21:17:28.553Z,13.80
2023-04-18T21:19:55.776Z,14.88
2023-04-18T21:22:22.390Z,14.45
2023-04-18T21:24:49.364Z,15.57
2023-04-18T21:27:16.260Z,15.10
2023-04-18T21:29:42.996Z,14.30
2023-04-18T21:32:09.686Z,17.33
2023-04-18T21:34:36.625Z,15.95
2023-04-18T21:37:03.683Z,14.77
2023-04-18T21:39:30.925Z,13.83
2023-04-18T21:41:58.071Z,14.93
2023-04-18T21:44:24.787Z,14.45
2023-04-18T21:46:51.492Z,15.10
2023-04-18T21:49:18.198Z,15.15
2023-04-18T21:51:45.412Z,15.63
2023-04-18T21:54:12.532Z,14.88
2023-04-18T21:56:39.387Z,15.75
2023-04-18T21:59:06.055Z,15.73
2023-04-18T22:01:38.124Z,15.57
2023-04-18T22:04:05.879Z,15.27
2023-04-18T22:06:33.381Z,14.90
2023-04-18T22:09:01.023Z,15.15
2023-04-18T22:11:28.512Z,16.80
2023-04-18T22:13:55.244Z,15.00
2023-04-18T22:16:22.110Z,17.07
2023-04-18T22:18:51.565Z,17.75
2023-04-18T22:21:18.292Z,17.17
2023-04-18T22:23:45.672Z,18.17
2023-04-18T22:26:12.433Z,17.27
2023-04-18T22:28:39.148Z,14.37
2023-04-18T22:31:05.941Z,14.18
2023-04-18T22:33:32.621Z,14.98
2023-04-18T22:35:59.319Z,22.33
2023-04-18T22:38:26.007Z,15.65
2023-04-18T22:40:52.976Z,14.97
2023-04-18T22:43:22.957Z,15.40
2023-04-18T22:45:49.978Z,14.80
2023-04-18T22:48:17.155Z,14.48
2023-04-18T22:50:44.018Z,14.93
2023-04-18T22:53:11.221Z,15.30
2023-04-18T22:55:39.631Z,15.52
2023-04-18T22:58:07.000Z,14.80
2023-04-18T23:00:33.785Z,15.35
2023-04-18T23:03:01.059Z,15.57
2023-04-18T23:05:28.826Z,15.37
2023-04-18T23:07:57.738Z,15.63
2023-04-18T23:10:25.836Z,15.02
2023-04-18T23:12:52.591Z,13.95
2023-04-18T23:15:22.559Z,16.60
2023-04-18T23:17:51.839Z,16.13
2023-04-18T23:20:19.093Z,14.32
2023-04-18T23:22:46.621Z,15.05
2023-04-18T23:25:13.281Z,16.17
2023-04-18T23:27:40.230Z,15.95
2023-04-18T23:30:07.577Z,16.53
2023-04-18T23:32:34.368Z,16.10
2023-04-18T23:35:04.276Z,17.10
2023-04-18T23:37:31.434Z,15.55
2023-04-18T23:39:59.467Z,16.65
2023-04-18T23:42:26.197Z,16.60
2023-04-18T23:44:52.874Z,17.17
2023-04-18T23:47:19.639Z,15.88
2023-04-18T23:49:46.395Z,16.80
2023-04-18T23:52:13.120Z,15.55
2023-04-18T23:54:39.828Z,15.63
2023-04-18T23:57:06.532Z,16.13
2023-04-18T23:59:33.166Z,16.98
